sensor_id;sensor_type;location;lat;lon;timestamp;P1;durP1;ratioP1;P2;durP2;ratioP2
44204;SDS011;30163;42.698;23.344;2022-10-29T00:01:10;39.80;;;17.90;;
44204;SDS011;30163;42.698;23.344;2022-10-29T00:03:35;55.72;;;19.10;;
44204;SDS011;30163;42.698;23.344;2022-10-29T00:06:02;50.20;;;19.60;;
44204;SDS011;30163;42.698;23.344;2022-10-29T00:08:29;39.13;;;18.45;;
44204;SDS011;30163;42.698;23.344;2022-10-29T00:11:03;36.53;;;19.02;;
44204;SDS011;30163;42.698;23.344;2022-10-29T00:13:37;40.45;;;20.23;;
44204;SDS011;30163;42.698;23.344;2022-10-29T00:16:03;49.05;;;18.90;;
44204;SDS011;30163;42.698;23.344;2022-10-29T00:18:48;48.60;;;18.98;;
44204;SDS011;30163;42.698;23.344;2022-10-29T00:21:17;48.03;;;19.17;;
44204;SDS011;30163;42.698;23.344;2022-10-29T00:23:44;45.60;;;19.17;;
44204;SDS011;30163;42.698;23.344;2022-10-29T00:26:10;41.90;;;20.33;;
44204;SDS011;30163;42.698;23.344;2022-10-29T00:28:35;49.08;;;20.42;;
44204;SDS011;30163;42.698;23.344;2022-10-29T00:31:09;41.47;;;19.90;;
44204;SDS011;30163;42.698;23.344;2022-10-29T00:33:36;44.88;;;19.15;;
44204;SDS011;30163;42.698;23.344;2022-10-29T00:36:03;46.50;;;20.13;;
44204;SDS011;30163;42.698;23.344;2022-10-29T00:38:34;50.17;;;21.65;;
44204;SDS011;30163;42.698;23.344;2022-10-29T00:41:00;66.72;;;25.85;;
44204;SDS011;30163;42.698;23.344;2022-10-29T00:43:26;54.03;;;22.85;;
44204;SDS011;30163;42.698;23.344;2022-10-29T00:48:29;54.80;;;25.48;;
44204;SDS011;30163;42.698;23.344;2022-10-29T00:50:56;41.40;;;19.20;;
44204;SDS011;30163;42.698;23.344;2022-10-29T00:53:23;42.45;;;18.60;;
44204;SDS011;30163;42.698;23.344;2022-10-29T00:55:51;39.67;;;19.10;;
44204;SDS011;30163;42.698;23.344;2022-10-29T00:58:16;43.50;;;18.85;;
44204;SDS011;30163;42.698;23.344;2022-10-29T01:00:42;42.33;;;19.08;;
44204;SDS011;30163;42.698;23.344;2022-10-29T01:03:08;42.47;;;18.10;;
44204;SDS011;30163;42.698;23.344;2022-10-29T01:05:34;34.50;;;18.10;;
44204;SDS011;30163;42.698;23.344;2022-10-29T01:08:00;47.72;;;19.00;;
44204;SDS011;30163;42.698;23.344;2022-10-29T01:13:04;39.65;;;18.40;;
44204;SDS011;30163;42.698;23.344;2022-10-29T01:18:08;34.28;;;15.75;;
44204;SDS011;30163;42.698;23.344;2022-10-29T01:27:09;40.85;;;17.58;;
44204;SDS011;30163;42.698;23.344;2022-10-29T01:30:02;52.88;;;18.02;;
44204;SDS011;30163;42.698;23.344;2022-10-29T01:43:16;38.17;;;15.88;;
44204;SDS011;30163;42.698;23.344;2022-10-29T01:45:54;31.67;;;15.52;;
44204;SDS011;30163;42.698;23.344;2022-10-29T01:48:25;39.63;;;15.80;;
44204;SDS011;30163;42.698;23.344;2022-10-29T01:50:54;40.08;;;16.33;;
44204;SDS011;30163;42.698;23.344;2022-10-29T01:53:21;38.45;;;17.60;;
44204;SDS011;30163;42.698;23.344;2022-10-29T01:55:47;43.97;;;16.55;;
44204;SDS011;30163;42.698;23.344;2022-10-29T01:58:12;34.45;;;15.93;;
44204;SDS011;30163;42.698;23.344;2022-10-29T02:08:52;37.20;;;15.70;;
44204;SDS011;30163;42.698;23.344;2022-10-29T02:11:24;39.85;;;16.45;;
44204;SDS011;30163;42.698;23.344;2022-10-29T02:14:09;40.97;;;17.35;;
44204;SDS011;30163;42.698;23.344;2022-10-29T02:16:38;44.15;;;16.52;;
44204;SDS011;30163;42.698;23.344;2022-10-29T02:19:04;41.90;;;18.35;;
44204;SDS011;30163;42.698;23.344;2022-10-29T02:21:30;34.88;;;15.95;;
44204;SDS011;30163;42.698;23.344;2022-10-29T02:23:55;36.13;;;17.27;;
44204;SDS011;30163;42.698;23.344;2022-10-29T02:26:20;37.00;;;15.82;;
44204;SDS011;30163;42.698;23.344;2022-10-29T02:28:46;39.30;;;18.85;;
44204;SDS011;30163;42.698;23.344;2022-10-29T02:31:11;35.92;;;19.33;;
44204;SDS011;30163;42.698;23.344;2022-10-29T02:33:37;49.17;;;20.13;;
44204;SDS011;30163;42.698;23.344;2022-10-29T02:36:02;46.05;;;20.35;;
44204;SDS011;30163;42.698;23.344;2022-10-29T02:38:28;41.30;;;20.17;;
44204;SDS011;30163;42.698;23.344;2022-10-29T02:40:53;44.35;;;19.52;;
44204;SDS011;30163;42.698;23.344;2022-10-29T02:43:19;40.40;;;20.30;;
44204;SDS011;30163;42.698;23.344;2022-10-29T02:45:44;53.15;;;20.17;;
44204;SDS011;30163;42.698;23.344;2022-10-29T02:48:10;46.78;;;19.02;;
44204;SDS011;30163;42.698;23.344;2022-10-29T02:50:35;45.63;;;19.08;;
44204;SDS011;30163;42.698;23.344;2022-10-29T02:53:00;45.25;;;19.92;;
44204;SDS011;30163;42.698;23.344;2022-10-29T02:55:26;44.35;;;19.77;;
44204;SDS011;30163;42.698;23.344;2022-10-29T02:57:51;67.75;;;21.50;;
44204;SDS011;30163;42.698;23.344;2022-10-29T03:00:16;69.90;;;20.95;;
44204;SDS011;30163;42.698;23.344;2022-10-29T03:02:42;52.80;;;21.88;;
44204;SDS011;30163;42.698;23.344;2022-10-29T03:05:08;49.03;;;20.55;;
44204;SDS011;30163;42.698;23.344;2022-10-29T03:07:34;52.83;;;21.60;;
44204;SDS011;30163;42.698;23.344;2022-10-29T03:10:01;50.42;;;22.10;;
44204;SDS011;30163;42.698;23.344;2022-10-29T03:12:28;53.85;;;20.02;;
44204;SDS011;30163;42.698;23.344;2022-10-29T03:14:53;44.95;;;20.42;;
44204;SDS011;30163;42.698;23.344;2022-10-29T03:17:18;45.35;;;23.17;;
44204;SDS011;30163;42.698;23.344;2022-10-29T03:19:44;42.38;;;20.27;;
44204;SDS011;30163;42.698;23.344;2022-10-29T03:22:09;52.38;;;20.42;;
44204;SDS011;30163;42.698;23.344;2022-10-29T03:24:34;51.72;;;20.60;;
44204;SDS011;30163;42.698;23.344;2022-10-29T03:27:00;49.58;;;22.75;;
44204;SDS011;30163;42.698;23.344;2022-10-29T03:29:25;49.78;;;21.67;;
44204;SDS011;30163;42.698;23.344;2022-10-29T03:31:50;47.03;;;21.10;;
44204;SDS011;30163;42.698;23.344;2022-10-29T03:34:16;50.97;;;20.73;;
44204;SDS011;30163;42.698;23.344;2022-10-29T03:36:41;48.17;;;19.73;;
44204;SDS011;30163;42.698;23.344;2022-10-29T03:39:07;36.83;;;18.33;;
44204;SDS011;30163;42.698;23.344;2022-10-29T03:41:32;55.28;;;19.65;;
44204;SDS011;30163;42.698;23.344;2022-10-29T03:43:57;47.75;;;20.52;;
44204;SDS011;30163;42.698;23.344;2022-10-29T03:46:23;43.78;;;20.38;;
44204;SDS011;30163;42.698;23.344;2022-10-29T03:48:48;39.88;;;20.08;;
44204;SDS011;30163;42.698;23.344;2022-10-29T03:51:14;44.75;;;21.27;;
44204;SDS011;30163;42.698;23.344;2022-10-29T03:53:39;45.08;;;20.00;;
44204;SDS011;30163;42.698;23.344;2022-10-29T03:56:05;50.08;;;21.60;;
44204;SDS011;30163;42.698;23.344;2022-10-29T03:58:30;59.47;;;24.33;;
44204;SDS011;30163;42.698;23.344;2022-10-29T04:00:57;51.08;;;23.38;;
44204;SDS011;30163;42.698;23.344;2022-10-29T04:03:28;66.70;;;25.92;;
44204;SDS011;30163;42.698;23.344;2022-10-29T04:05:55;48.08;;;22.48;;
44204;SDS011;30163;42.698;23.344;2022-10-29T04:08:21;45.28;;;19.63;;
44204;SDS011;30163;42.698;23.344;2022-10-29T04:10:47;47.05;;;19.30;;
44204;SDS011;30163;42.698;23.344;2022-10-29T04:13:14;44.83;;;18.05;;
44204;SDS011;30163;42.698;23.344;2022-10-29T04:15:39;46.95;;;20.13;;
44204;SDS011;30163;42.698;23.344;2022-10-29T04:18:05;54.25;;;20.20;;
44204;SDS011;30163;42.698;23.344;2022-10-29T04:20:31;46.80;;;18.17;;
44204;SDS011;30163;42.698;23.344;2022-10-29T04:22:56;45.45;;;19.75;;
44204;SDS011;30163;42.698;23.344;2022-10-29T04:25:22;33.95;;;18.67;;
44204;SDS011;30163;42.698;23.344;2022-10-29T04:27:47;41.30;;;18.98;;
44204;SDS011;30163;42.698;23.344;2022-10-29T04:30:12;54.28;;;19.80;;
44204;SDS011;30163;42.698;23.344;2022-10-29T04:32:38;45.65;;;21.45;;
44204;SDS011;30163;42.698;23.344;2022-10-29T04:35:03;49.28;;;20.85;;
44204;SDS011;30163;42.698;23.344;2022-10-29T04:37:29;59.65;;;21.77;;
44204;SDS011;30163;42.698;23.344;2022-10-29T04:39:55;57.45;;;21.42;;
44204;SDS011;30163;42.698;23.344;2022-10-29T04:42:20;51.90;;;23.35;;
44204;SDS011;30163;42.698;23.344;2022-10-29T04:44:45;43.85;;;22.50;;
44204;SDS011;30163;42.698;23.344;2022-10-29T04:47:11;48.50;;;22.75;;
44204;SDS011;30163;42.698;23.344;2022-10-29T04:49:36;63.65;;;25.05;;
44204;SDS011;30163;42.698;23.344;2022-10-29T04:52:02;51.00;;;24.17;;
44204;SDS011;30163;42.698;23.344;2022-10-29T04:54:27;60.05;;;24.95;;
44204;SDS011;30163;42.698;23.344;2022-10-29T04:56:53;42.42;;;24.23;;
44204;SDS011;30163;42.698;23.344;2022-10-29T04:59:18;49.40;;;23.40;;
44204;SDS011;30163;42.698;23.344;2022-10-29T05:01:43;61.38;;;24.35;;
44204;SDS011;30163;42.698;23.344;2022-10-29T05:04:09;48.25;;;23.10;;
44204;SDS011;30163;42.698;23.344;2022-10-29T05:06:34;49.13;;;22.70;;
44204;SDS011;30163;42.698;23.344;2022-10-29T05:09:00;52.88;;;24.48;;
44204;SDS011;30163;42.698;23.344;2022-10-29T05:11:25;56.25;;;27.20;;
44204;SDS011;30163;42.698;23.344;2022-10-29T05:13:51;67.25;;;29.48;;
44204;SDS011;30163;42.698;23.344;2022-10-29T05:16:16;62.47;;;24.65;;
44204;SDS011;30163;42.698;23.344;2022-10-29T05:18:41;73.00;;;27.95;;
44204;SDS011;30163;42.698;23.344;2022-10-29T05:21:07;49.05;;;27.42;;
44204;SDS011;30163;42.698;23.344;2022-10-29T05:23:32;58.78;;;23.30;;
44204;SDS011;30163;42.698;23.344;2022-10-29T05:25:58;44.50;;;23.88;;
44204;SDS011;30163;42.698;23.344;2022-10-29T05:28:23;44.85;;;23.02;;
44204;SDS011;30163;42.698;23.344;2022-10-29T05:30:49;43.53;;;20.92;;
44204;SDS011;30163;42.698;23.344;2022-10-29T05:33:16;50.63;;;21.35;;
44204;SDS011;30163;42.698;23.344;2022-10-29T05:35:44;41.40;;;20.38;;
44204;SDS011;30163;42.698;23.344;2022-10-29T05:38:10;33.35;;;19.10;;
44204;SDS011;30163;42.698;23.344;2022-10-29T05:40:36;42.28;;;22.00;;
44204;SDS011;30163;42.698;23.344;2022-10-29T05:43:01;49.90;;;21.65;;
44204;SDS011;30163;42.698;23.344;2022-10-29T05:45:27;54.00;;;21.60;;
44204;SDS011;30163;42.698;23.344;2022-10-29T05:47:55;57.83;;;21.83;;
44204;SDS011;30163;42.698;23.344;2022-10-29T05:50:22;44.78;;;22.38;;
44204;SDS011;30163;42.698;23.344;2022-10-29T05:52:57;58.20;;;24.33;;
44204;SDS011;30163;42.698;23.344;2022-10-29T05:55:23;54.05;;;24.85;;
44204;SDS011;30163;42.698;23.344;2022-10-29T05:57:49;71.55;;;24.67;;
44204;SDS011;30163;42.698;23.344;2022-10-29T06:00:15;49.38;;;22.20;;
44204;SDS011;30163;42.698;23.344;2022-10-29T06:02:43;54.95;;;23.40;;
44204;SDS011;30163;42.698;23.344;2022-10-29T06:05:09;49.28;;;22.33;;
44204;SDS011;30163;42.698;23.344;2022-10-29T06:07:34;48.63;;;23.30;;
44204;SDS011;30163;42.698;23.344;2022-10-29T06:10:00;52.03;;;23.67;;
44204;SDS011;30163;42.698;23.344;2022-10-29T06:12:25;43.15;;;19.70;;
44204;SDS011;30163;42.698;23.344;2022-10-29T06:14:50;50.63;;;20.60;;
44204;SDS011;30163;42.698;23.344;2022-10-29T06:17:16;47.38;;;23.48;;
44204;SDS011;30163;42.698;23.344;2022-10-29T06:19:41;50.05;;;22.98;;
44204;SDS011;30163;42.698;23.344;2022-10-29T06:22:06;60.22;;;20.65;;
44204;SDS011;30163;42.698;23.344;2022-10-29T06:24:32;48.70;;;21.23;;
44204;SDS011;30163;42.698;23.344;2022-10-29T06:26:57;49.88;;;20.40;;
44204;SDS011;30163;42.698;23.344;2022-10-29T06:29:22;44.95;;;18.55;;
44204;SDS011;30163;42.698;23.344;2022-10-29T06:31:48;50.00;;;17.25;;
44204;SDS011;30163;42.698;23.344;2022-10-29T06:34:13;36.13;;;16.40;;
44204;SDS011;30163;42.698;23.344;2022-10-29T06:36:39;48.10;;;17.58;;
44204;SDS011;30163;42.698;23.344;2022-10-29T06:39:04;34.97;;;15.93;;
44204;SDS011;30163;42.698;23.344;2022-10-29T06:41:29;37.13;;;16.50;;
44204;SDS011;30163;42.698;23.344;2022-10-29T06:43:55;31.63;;;16.77;;
44204;SDS011;30163;42.698;23.344;2022-10-29T06:46:20;36.63;;;17.20;;
44204;SDS011;30163;42.698;23.344;2022-10-29T06:48:46;37.40;;;18.20;;
44204;SDS011;30163;42.698;23.344;2022-10-29T06:51:11;43.08;;;20.23;;
44204;SDS011;30163;42.698;23.344;2022-10-29T06:53:37;37.60;;;20.58;;
44204;SDS011;30163;42.698;23.344;2022-10-29T06:56:02;32.60;;;17.02;;
44204;SDS011;30163;42.698;23.344;2022-10-29T06:58:27;48.60;;;18.55;;
44204;SDS011;30163;42.698;23.344;2022-10-29T07:00:53;47.80;;;20.60;;
44204;SDS011;30163;42.698;23.344;2022-10-29T07:03:18;37.42;;;19.70;;
44204;SDS011;30163;42.698;23.344;2022-10-29T07:05:44;52.20;;;20.75;;
44204;SDS011;30163;42.698;23.344;2022-10-29T07:08:10;44.15;;;21.58;;
44204;SDS011;30163;42.698;23.344;2022-10-29T07:10:36;52.40;;;20.52;;
44204;SDS011;30163;42.698;23.344;2022-10-29T07:13:02;44.55;;;21.10;;
44204;SDS011;30163;42.698;23.344;2022-10-29T07:15:28;47.70;;;21.63;;
44204;SDS011;30163;42.698;23.344;2022-10-29T07:20:23;46.22;;;20.25;;
44204;SDS011;30163;42.698;23.344;2022-10-29T07:22:48;37.25;;;18.95;;
44204;SDS011;30163;42.698;23.344;2022-10-29T07:25:13;44.97;;;17.50;;
44204;SDS011;30163;42.698;23.344;2022-10-29T07:27:39;36.50;;;18.55;;
44204;SDS011;30163;42.698;23.344;2022-10-29T07:30:04;49.20;;;18.20;;
44204;SDS011;30163;42.698;23.344;2022-10-29T07:32:30;35.58;;;18.08;;
44204;SDS011;30163;42.698;23.344;2022-10-29T07:34:55;45.45;;;21.20;;
44204;SDS011;30163;42.698;23.344;2022-10-29T07:37:21;72.07;;;20.88;;
44204;SDS011;30163;42.698;23.344;2022-10-29T07:39:46;46.20;;;22.17;;
44204;SDS011;30163;42.698;23.344;2022-10-29T07:42:11;51.20;;;24.13;;
44204;SDS011;30163;42.698;23.344;2022-10-29T07:44:37;38.78;;;20.60;;
44204;SDS011;30163;42.698;23.344;2022-10-29T07:47:02;45.92;;;21.20;;
44204;SDS011;30163;42.698;23.344;2022-10-29T07:49:28;52.80;;;25.55;;
44204;SDS011;30163;42.698;23.344;2022-10-29T07:51:53;45.35;;;22.45;;
44204;SDS011;30163;42.698;23.344;2022-10-29T07:54:18;55.33;;;24.33;;
44204;SDS011;30163;42.698;23.344;2022-10-29T07:56:44;47.15;;;25.42;;
44204;SDS011;30163;42.698;23.344;2022-10-29T07:59:09;61.67;;;25.35;;
44204;SDS011;30163;42.698;23.344;2022-10-29T08:01:38;49.15;;;25.23;;
44204;SDS011;30163;42.698;23.344;2022-10-29T08:04:03;49.78;;;25.23;;
44204;SDS011;30163;42.698;23.344;2022-10-29T08:06:29;60.03;;;26.52;;
44204;SDS011;30163;42.698;23.344;2022-10-29T08:08:54;57.33;;;27.58;;
44204;SDS011;30163;42.698;23.344;2022-10-29T08:11:20;47.72;;;25.17;;
44204;SDS011;30163;42.698;23.344;2022-10-29T08:13:47;50.40;;;25.63;;
44204;SDS011;30163;42.698;23.344;2022-10-29T08:16:12;56.55;;;27.52;;
44204;SDS011;30163;42.698;23.344;2022-10-29T08:18:38;53.55;;;26.35;;
44204;SDS011;30163;42.698;23.344;2022-10-29T08:21:03;48.53;;;24.10;;
44204;SDS011;30163;42.698;23.344;2022-10-29T08:23:29;60.55;;;26.80;;
44204;SDS011;30163;42.698;23.344;2022-10-29T08:25:56;68.82;;;25.40;;
44204;SDS011;30163;42.698;23.344;2022-10-29T08:28:22;64.68;;;25.52;;
44204;SDS011;30163;42.698;23.344;2022-10-29T08:30:47;61.45;;;24.10;;
44204;SDS011;30163;42.698;23.344;2022-10-29T08:33:13;62.88;;;24.85;;
44204;SDS011;30163;42.698;23.344;2022-10-29T08:35:39;56.17;;;22.98;;
44204;SDS011;30163;42.698;23.344;2022-10-29T08:38:04;57.50;;;23.42;;
44204;SDS011;30163;42.698;23.344;2022-10-29T08:40:31;60.22;;;22.67;;
44204;SDS011;30163;42.698;23.344;2022-10-29T08:45:51;53.72;;;21.73;;
44204;SDS011;30163;42.698;23.344;2022-10-29T08:48:34;44.78;;;21.23;;
44204;SDS011;30163;42.698;23.344;2022-10-29T08:53:36;52.80;;;17.95;;
44204;SDS011;30163;42.698;23.344;2022-10-29T08:56:05;40.33;;;17.83;;
44204;SDS011;30163;42.698;23.344;2022-10-29T08:58:36;42.13;;;17.50;;
44204;SDS011;30163;42.698;23.344;2022-10-29T09:01:08;33.38;;;17.88;;
44204;SDS011;30163;42.698;23.344;2022-10-29T09:03:35;50.72;;;16.23;;
44204;SDS011;30163;42.698;23.344;2022-10-29T09:22:38;39.95;;;15.43;;
44204;SDS011;30163;42.698;23.344;2022-10-29T09:25:44;39.95;;;14.48;;
44204;SDS011;30163;42.698;23.344;2022-10-29T09:30:58;39.85;;;13.18;;
44204;SDS011;30163;42.698;23.344;2022-10-29T09:33:45;45.05;;;12.82;;
44204;SDS011;30163;42.698;23.344;2022-10-29T09:36:14;39.85;;;11.43;;
44204;SDS011;30163;42.698;23.344;2022-10-29T09:38:46;31.73;;;11.57;;
44204;SDS011;30163;42.698;23.344;2022-10-29T09:41:17;37.58;;;13.90;;
44204;SDS011;30163;42.698;23.344;2022-10-29T09:48:55;28.65;;;10.25;;
44204;SDS011;30163;42.698;23.344;2022-10-29T09:54:05;19.15;;;10.68;;
44204;SDS011;30163;42.698;23.344;2022-10-29T09:56:30;25.48;;;10.05;;
44204;SDS011;30163;42.698;23.344;2022-10-29T10:01:58;23.58;;;10.60;;
44204;SDS011;30163;42.698;23.344;2022-10-29T10:04:28;25.65;;;11.35;;
44204;SDS011;30163;42.698;23.344;2022-10-29T10:07:38;20.20;;;9.60;;
44204;SDS011;30163;42.698;23.344;2022-10-29T10:12:25;23.27;;;9.57;;
44204;SDS011;30163;42.698;23.344;2022-10-29T10:15:13;37.20;;;10.90;;
44204;SDS011;30163;42.698;23.344;2022-10-29T10:17:57;17.30;;;9.05;;
44204;SDS011;30163;42.698;23.344;2022-10-29T10:20:41;19.45;;;8.98;;
44204;SDS011;30163;42.698;23.344;2022-10-29T10:23:23;19.70;;;9.05;;
44204;SDS011;30163;42.698;23.344;2022-10-29T10:25:51;29.17;;;9.70;;
44204;SDS011;30163;42.698;23.344;2022-10-29T10:28:19;20.23;;;9.43;;
44204;SDS011;30163;42.698;23.344;2022-10-29T10:31:04;21.17;;;8.77;;
44204;SDS011;30163;42.698;23.344;2022-10-29T10:33:48;17.48;;;7.40;;
44204;SDS011;30163;42.698;23.344;2022-10-29T10:36:14;24.65;;;9.98;;
44204;SDS011;30163;42.698;23.344;2022-10-29T10:38:50;17.60;;;9.10;;
44204;SDS011;30163;42.698;23.344;2022-10-29T10:41:33;17.75;;;8.50;;
44204;SDS011;30163;42.698;23.344;2022-10-29T10:44:00;21.08;;;8.77;;
44204;SDS011;30163;42.698;23.344;2022-10-29T10:46:28;35.33;;;8.27;;
44204;SDS011;30163;42.698;23.344;2022-10-29T10:51:29;24.77;;;7.50;;
44204;SDS011;30163;42.698;23.344;2022-10-29T10:53:57;17.98;;;7.15;;
44204;SDS011;30163;42.698;23.344;2022-10-29T10:56:23;23.52;;;8.13;;
44204;SDS011;30163;42.698;23.344;2022-10-29T10:58:50;18.90;;;7.28;;
44204;SDS011;30163;42.698;23.344;2022-10-29T11:01:25;16.67;;;6.55;;
44204;SDS011;30163;42.698;23.344;2022-10-29T11:04:03;14.82;;;5.88;;
44204;SDS011;30163;42.698;23.344;2022-10-29T11:06:34;13.40;;;6.00;;
44204;SDS011;30163;42.698;23.344;2022-10-29T11:09:07;23.45;;;5.82;;
44204;SDS011;30163;42.698;23.344;2022-10-29T11:14:11;10.52;;;4.80;;
44204;SDS011;30163;42.698;23.344;2022-10-29T11:16:52;14.13;;;4.97;;
44204;SDS011;30163;42.698;23.344;2022-10-29T11:22:05;16.48;;;5.60;;
44204;SDS011;30163;42.698;23.344;2022-10-29T11:24:52;12.30;;;5.28;;
44204;SDS011;30163;42.698;23.344;2022-10-29T11:32:21;10.35;;;5.85;;
44204;SDS011;30163;42.698;23.344;2022-10-29T11:34:55;21.02;;;5.85;;
44204;SDS011;30163;42.698;23.344;2022-10-29T11:37:24;16.27;;;5.65;;
44204;SDS011;30163;42.698;23.344;2022-10-29T11:40:46;11.43;;;5.75;;
44204;SDS011;30163;42.698;23.344;2022-10-29T11:43:00;12.02;;;5.88;;
44204;SDS011;30163;42.698;23.344;2022-10-29T11:48:11;13.75;;;6.03;;
44204;SDS011;30163;42.698;23.344;2022-10-29T11:55:37;17.27;;;6.43;;
44204;SDS011;30163;42.698;23.344;2022-10-29T12:01:07;24.65;;;7.25;;
44204;SDS011;30163;42.698;23.344;2022-10-29T12:04:22;17.15;;;6.18;;
44204;SDS011;30163;42.698;23.344;2022-10-29T12:06:38;21.30;;;5.93;;
44204;SDS011;30163;42.698;23.344;2022-10-29T12:16:53;14.35;;;6.45;;
44204;SDS011;30163;42.698;23.344;2022-10-29T12:28:42;14.20;;;4.65;;
44204;SDS011;30163;42.698;23.344;2022-10-29T12:34:22;10.68;;;4.78;;
44204;SDS011;30163;42.698;23.344;2022-10-29T12:39:53;14.35;;;4.25;;
44204;SDS011;30163;42.698;23.344;2022-10-29T12:55:43;9.18;;;3.90;;
44204;SDS011;30163;42.698;23.344;2022-10-29T13:14:21;12.38;;;3.70;;
44204;SDS011;30163;42.698;23.344;2022-10-29T13:16:49;10.80;;;5.05;;
44204;SDS011;30163;42.698;23.344;2022-10-29T13:19:17;9.48;;;3.40;;
44204;SDS011;30163;42.698;23.344;2022-10-29T13:22:00;8.52;;;3.05;;
44204;SDS011;30163;42.698;23.344;2022-10-29T13:24:28;5.45;;;2.67;;
44204;SDS011;30163;42.698;23.344;2022-10-29T13:27:00;5.25;;;3.00;;
44204;SDS011;30163;42.698;23.344;2022-10-29T13:29:41;12.75;;;3.20;;
44204;SDS011;30163;42.698;23.344;2022-10-29T13:32:27;7.45;;;3.85;;
44204;SDS011;30163;42.698;23.344;2022-10-29T13:42:47;7.88;;;3.60;;
44204;SDS011;30163;42.698;23.344;2022-10-29T13:45:19;6.95;;;3.95;;
44204;SDS011;30163;42.698;23.344;2022-10-29T13:47:45;6.03;;;3.08;;
44204;SDS011;30163;42.698;23.344;2022-10-29T13:50:10;8.77;;;3.47;;
44204;SDS011;30163;42.698;23.344;2022-10-29T13:52:39;8.32;;;3.58;;
44204;SDS011;30163;42.698;23.344;2022-10-29T13:55:06;7.43;;;3.42;;
44204;SDS011;30163;42.698;23.344;2022-10-29T13:57:32;14.35;;;3.92;;
44204;SDS011;30163;42.698;23.344;2022-10-29T14:04:55;9.95;;;4.15;;
44204;SDS011;30163;42.698;23.344;2022-10-29T14:07:44;9.45;;;3.75;;
44204;SDS011;30163;42.698;23.344;2022-10-29T14:10:22;15.73;;;5.40;;
44204;SDS011;30163;42.698;23.344;2022-10-29T14:16:08;12.23;;;4.43;;
44204;SDS011;30163;42.698;23.344;2022-10-29T14:18:36;9.93;;;3.67;;
44204;SDS011;30163;42.698;23.344;2022-10-29T14:23:36;10.60;;;3.90;;
44204;SDS011;30163;42.698;23.344;2022-10-29T14:26:11;9.55;;;4.40;;
44204;SDS011;30163;42.698;23.344;2022-10-29T14:28:39;13.20;;;4.70;;
44204;SDS011;30163;42.698;23.344;2022-10-29T14:31:11;11.38;;;4.47;;
44204;SDS011;30163;42.698;23.344;2022-10-29T14:33:39;7.78;;;3.88;;
44204;SDS011;30163;42.698;23.344;2022-10-29T14:39:23;11.98;;;4.65;;
44204;SDS011;30163;42.698;23.344;2022-10-29T14:41:50;10.27;;;3.83;;
44204;SDS011;30163;42.698;23.344;2022-10-29T14:44:17;15.85;;;4.55;;
44204;SDS011;30163;42.698;23.344;2022-10-29T14:49:51;13.55;;;4.80;;
44204;SDS011;30163;42.698;23.344;2022-10-29T14:55:00;10.50;;;4.10;;
44204;SDS011;30163;42.698;23.344;2022-10-29T14:57:28;16.38;;;4.97;;
44204;SDS011;30163;42.698;23.344;2022-10-29T15:00:00;21.77;;;4.85;;
44204;SDS011;30163;42.698;23.344;2022-10-29T15:02:34;14.95;;;3.88;;
44204;SDS011;30163;42.698;23.344;2022-10-29T15:05:02;13.52;;;4.80;;
44204;SDS011;30163;42.698;23.344;2022-10-29T15:07:29;10.77;;;4.50;;
44204;SDS011;30163;42.698;23.344;2022-10-29T15:10:15;21.90;;;5.10;;
44204;SDS011;30163;42.698;23.344;2022-10-29T15:12:43;21.65;;;5.18;;
44204;SDS011;30163;42.698;23.344;2022-10-29T15:15:12;16.05;;;4.63;;
44204;SDS011;30163;42.698;23.344;2022-10-29T15:23:10;10.45;;;4.85;;
44204;SDS011;30163;42.698;23.344;2022-10-29T15:25:42;25.98;;;5.50;;
44204;SDS011;30163;42.698;23.344;2022-10-29T15:28:09;12.00;;;5.32;;
44204;SDS011;30163;42.698;23.344;2022-10-29T15:30:36;16.52;;;4.95;;
44204;SDS011;30163;42.698;23.344;2022-10-29T15:33:03;12.85;;;4.60;;
44204;SDS011;30163;42.698;23.344;2022-10-29T15:35:32;8.73;;;4.95;;
44204;SDS011;30163;42.698;23.344;2022-10-29T15:37:58;14.88;;;5.50;;
44204;SDS011;30163;42.698;23.344;2022-10-29T15:40:23;22.48;;;6.57;;
44204;SDS011;30163;42.698;23.344;2022-10-29T15:42:51;26.75;;;6.00;;
44204;SDS011;30163;42.698;23.344;2022-10-29T15:50:38;17.38;;;7.32;;
44204;SDS011;30163;42.698;23.344;2022-10-29T15:53:05;24.40;;;8.35;;
44204;SDS011;30163;42.698;23.344;2022-10-29T15:55:32;23.15;;;7.80;;
44204;SDS011;30163;42.698;23.344;2022-10-29T15:58:01;30.50;;;8.93;;
44204;SDS011;30163;42.698;23.344;2022-10-29T16:00:30;20.83;;;9.77;;
44204;SDS011;30163;42.698;23.344;2022-10-29T16:02:59;23.98;;;10.18;;
44204;SDS011;30163;42.698;23.344;2022-10-29T16:05:31;22.17;;;9.25;;
44204;SDS011;30163;42.698;23.344;2022-10-29T16:07:56;25.10;;;8.77;;
44204;SDS011;30163;42.698;23.344;2022-10-29T16:10:24;24.25;;;8.38;;
44204;SDS011;30163;42.698;23.344;2022-10-29T16:12:50;19.95;;;7.07;;
44204;SDS011;30163;42.698;23.344;2022-10-29T16:15:17;36.38;;;7.80;;
44204;SDS011;30163;42.698;23.344;2022-10-29T16:17:43;21.48;;;7.47;;
44204;SDS011;30163;42.698;23.344;2022-10-29T16:20:16;18.95;;;8.25;;
44204;SDS011;30163;42.698;23.344;2022-10-29T16:22:43;20.48;;;8.00;;
44204;SDS011;30163;42.698;23.344;2022-10-29T16:25:19;43.10;;;9.32;;
44204;SDS011;30163;42.698;23.344;2022-10-29T16:27:48;24.95;;;9.18;;
44204;SDS011;30163;42.698;23.344;2022-10-29T16:30:14;42.78;;;10.52;;
44204;SDS011;30163;42.698;23.344;2022-10-29T16:32:39;25.90;;;8.23;;
44204;SDS011;30163;42.698;23.344;2022-10-29T16:35:13;28.73;;;9.77;;
44204;SDS011;30163;42.698;23.344;2022-10-29T16:37:41;18.33;;;8.73;;
44204;SDS011;30163;42.698;23.344;2022-10-29T16:40:07;24.30;;;8.80;;
44204;SDS011;30163;42.698;23.344;2022-10-29T16:42:34;31.00;;;8.77;;
44204;SDS011;30163;42.698;23.344;2022-10-29T16:45:00;22.98;;;8.18;;
44204;SDS011;30163;42.698;23.344;2022-10-29T16:47:25;21.73;;;8.77;;
44204;SDS011;30163;42.698;23.344;2022-10-29T16:49:51;30.63;;;9.65;;
44204;SDS011;30163;42.698;23.344;2022-10-29T16:52:17;32.25;;;10.88;;
44204;SDS011;30163;42.698;23.344;2022-10-29T16:54:42;31.67;;;11.07;;
44204;SDS011;30163;42.698;23.344;2022-10-29T16:57:08;32.80;;;12.25;;
44204;SDS011;30163;42.698;23.344;2022-10-29T16:59:33;34.78;;;12.40;;
44204;SDS011;30163;42.698;23.344;2022-10-29T17:01:58;36.17;;;14.65;;
44204;SDS011;30163;42.698;23.344;2022-10-29T17:04:24;35.47;;;14.13;;
44204;SDS011;30163;42.698;23.344;2022-10-29T17:06:50;42.95;;;13.30;;
44204;SDS011;30163;42.698;23.344;2022-10-29T17:09:16;35.70;;;12.98;;
44204;SDS011;30163;42.698;23.344;2022-10-29T17:11:41;46.22;;;12.85;;
44204;SDS011;30163;42.698;23.344;2022-10-29T17:14:06;32.70;;;13.27;;
44204;SDS011;30163;42.698;23.344;2022-10-29T17:16:32;42.38;;;13.02;;
44204;SDS011;30163;42.698;23.344;2022-10-29T17:18:57;35.55;;;12.88;;
44204;SDS011;30163;42.698;23.344;2022-10-29T17:21:23;40.53;;;13.27;;
44204;SDS011;30163;42.698;23.344;2022-10-29T17:23:48;60.58;;;13.38;;
44204;SDS011;30163;42.698;23.344;2022-10-29T17:26:14;49.22;;;17.98;;
44204;SDS011;30163;42.698;23.344;2022-10-29T17:28:40;47.53;;;17.45;;